Time;durP1;ratioP1;P1;durP2;ratioP2;P2;SDS_P1;SDS_P2;PMS_P1;PMS_P2;Temp;Humidity;BMP_temperature;BMP_pressure;BME280_temperature;BME280_humidity;BME280_pressure;Samples;Min_cycle;Max_cycle;Signal;HPM_P1;HPM_P2
2022/03/10 00:00:35;;;;;;;31.67;3.50;;;20.00;64.80;;;;;;5065896;28;20482;-67
2022/03/10 00:03:02;;;;;;;16.98;2.40;;;20.00;63.70;;;;;;5055890;28;20040;-67
2022/03/10 00:05:29;;;;;;;9.40;2.70;;;20.00;62.70;;;;;;5057728;28;20036;-69
2022/03/10 00:07:56;;;;;;;19.80;3.55;;;20.00;64.30;;;;;;5060799;28;20021;-69
2022/03/10 00:10:23;;;;;;;15.45;3.10;;;20.00;64.60;;;;;;5055817;28;20043;-69
2022/03/10 00:12:51;;;;;;;16.23;3.08;;;19.90;64.80;;;;;;5034589;28;20036;-69
2022/03/10 00:15:21;;;;;;;29.45;4.80;;;19.90;63.30;;;;;;5017213;28;20494;-69
2022/03/10 00:17:48;;;;;;;56.40;5.70;;;19.80;63.20;;;;;;5028591;28;20036;-68
2022/03/10 00:20:15;;;;;;;16.88;3.28;;;19.90;62.30;;;;;;5025026;28;20592;-69
2022/03/10 00:22:52;;;;;;;26.02;4.70;;;20.00;60.90;;;;;;5021682;28;20035;-68
2022/03/10 00:25:19;;;;;;;43.67;8.10;;;20.00;61.20;;;;;;5027762;28;20040;-69
2022/03/10 00:27:48;;;;;;;32.20;6.00;;;20.00;60.40;;;;;;5038677;28;20127;-69
2022/03/10 00:30:15;;;;;;;43.28;7.78;;;20.00;63.20;;;;;;5025923;28;20094;-67
2022/03/10 01:48:12;;;;;;;39.25;4.32;;;20.20;61.00;;;;;;5057796;28;20055;-69
2022/03/10 01:50:39;;;;;;;31.70;4.07;;;20.20;59.20;;;;;;5065819;28;20498;-70
2022/03/10 01:53:06;;;;;;;17.98;3.17;;;20.20;63.10;;;;;;5069207;28;20056;-70
2022/03/10 01:55:33;;;;;;;14.55;3.92;;;20.20;60.40;;;;;;5069979;28;20082;-69
2022/03/10 01:58:01;;;;;;;18.58;2.72;;;20.30;62.20;;;;;;5070873;28;20033;-70
2022/03/10 02:00:28;;;;;;;18.20;3.55;;;20.30;59.20;;;;;;5048662;28;20044;-69
2022/03/10 02:02:55;;;;;;;17.80;2.50;;;20.30;61.80;;;;;;5068417;28;20037;-69
2022/03/10 02:05:22;;;;;;;14.27;3.28;;;20.30;62.70;;;;;;5052457;28;20527;-68
2022/03/10 02:10:35;;;;;;;10.40;2.90;;;20.30;61.00;;;;;;5070203;28;20051;-69
2022/03/10 02:13:02;;;;;;;28.75;3.05;;;20.20;62.50;;;;;;5051862;28;20032;-70
2022/03/10 02:18:15;;;;;;;13.43;2.22;;;20.20;61.40;;;;;;5061715;28;20043;-69
2022/03/10 02:20:42;;;;;;;15.75;2.85;;;20.20;62.70;;;;;;5070110;28;20501;-68
2022/03/10 02:23:11;;;;;;;20.35;3.40;;;20.30;61.70;;;;;;5070137;28;20040;-67
2022/03/10 02:25:39;;;;;;;14.00;2.78;;;20.30;62.50;;;;;;5069858;28;20028;-68
2022/03/10 02:28:06;;;;;;;27.88;4.13;;;20.30;61.20;;;;;;5040485;28;20041;-69
2022/03/10 02:30:34;;;;;;;21.90;3.35;;;20.30;61.20;;;;;;5052287;28;20045;-68
2022/03/10 02:33:01;;;;;;;18.77;3.72;;;20.40;62.60;;;;;;5065235;28;20563;-68
2022/03/10 02:35:28;;;;;;;25.08;3.33;;;20.40;63.60;;;;;;5033799;28;20424;-69
2022/03/10 02:37:56;;;;;;;16.35;2.95;;;20.40;60.30;;;;;;5029569;28;20480;-68
2022/03/10 02:40:24;;;;;;;12.90;2.80;;;20.40;61.90;;;;;;5065868;28;20033;-68
2022/03/10 02:42:51;;;;;;;23.30;4.07;;;20.40;60.80;;;;;;5040020;28;20037;-68
2022/03/10 02:45:18;;;;;;;34.38;4.13;;;20.40;63.60;;;;;;5079893;28;20054;-70
2022/03/10 03:08:30;;;;;;;11.05;2.30;;;20.60;60.00;;;;;;5035372;28;20118;-69
2022/03/10 03:10:57;;;;;;;31.52;4.22;;;20.30;59.90;;;;;;5066047;28;20124;-69
2022/03/10 03:13:25;;;;;;;19.73;4.32;;;20.40;60.90;;;;;;5072875;28;20111;-68
2022/03/10 03:15:52;;;;;;;23.05;3.20;;;20.40;60.90;;;;;;5068406;28;20071;-69
2022/03/10 03:18:19;;;;;;;19.45;3.20;;;20.40;59.50;;;;;;5038537;28;20029;-69
2022/03/10 03:20:47;;;;;;;49.97;5.32;;;20.40;60.50;;;;;;5076253;28;20036;-68
2022/03/10 03:23:14;;;;;;;19.02;3.65;;;20.40;61.00;;;;;;5065682;28;20048;-69
2022/03/10 03:25:41;;;;;;;15.13;2.67;;;20.40;61.60;;;;;;5069829;28;20477;-70
2022/03/10 03:28:08;;;;;;;13.38;2.65;;;20.40;61.00;;;;;;5070192;28;20037;-70
2022/03/10 03:30:35;;;;;;;16.70;2.85;;;20.40;59.00;;;;;;5081179;28;20047;-70
2022/03/10 03:33:03;;;;;;;27.85;3.58;;;20.30;59.00;;;;;;5057196;28;20088;-69
2022/03/10 03:35:31;;;;;;;34.92;4.13;;;20.30;59.10;;;;;;5070797;28;20040;-68
2022/03/10 03:37:58;;;;;;;44.60;5.28;;;20.40;59.80;;;;;;5064853;28;20450;-70
2022/03/10 03:40:26;;;;;;;11.07;3.03;;;20.40;58.90;;;;;;5038653;28;20031;-68
2022/03/10 03:42:53;;;;;;;11.30;2.90;;;20.30;58.30;;;;;;5070848;28;20118;-70
2022/03/10 03:45:20;;;;;;;13.55;2.30;;;20.30;60.00;;;;;;5069422;28;20510;-70
2022/03/10 03:47:48;;;;;;;13.32;3.33;;;20.30;60.20;;;;;;5071864;28;20068;-68
2022/03/10 03:50:15;;;;;;;12.02;2.63;;;20.40;61.10;;;;;;5072659;28;20056;-69
2022/03/10 03:52:42;;;;;;;28.13;2.88;;;20.30;60.00;;;;;;5073111;28;20119;-68
2022/03/10 03:55:10;;;;;;;13.98;2.65;;;20.40;60.20;;;;;;5085984;28;20032;-70
2022/03/10 03:57:37;;;;;;;24.90;3.42;;;20.30;60.10;;;;;;5083616;28;20433;-70
2022/03/10 04:00:05;;;;;;;16.25;2.78;;;20.40;61.80;;;;;;5084360;28;20028;-69
2022/03/10 04:02:33;;;;;;;31.65;3.90;;;20.40;61.60;;;;;;5030863;28;20319;-70
2022/03/10 04:05:00;;;;;;;11.98;2.25;;;20.40;60.50;;;;;;5074055;28;20488;-69
2022/03/10 04:07:27;;;;;;;25.50;2.90;;;20.40;60.00;;;;;;5079559;28;20115;-68
2022/03/10 04:09:54;;;;;;;16.45;2.60;;;20.40;60.30;;;;;;5069491;28;20318;-67
2022/03/10 04:12:21;;;;;;;20.50;2.47;;;20.40;61.70;;;;;;5038959;28;20039;-69
2022/03/10 04:14:49;;;;;;;9.98;2.20;;;20.40;60.60;;;;;;5052038;28;20081;-67
2022/03/10 04:17:16;;;;;;;14.38;2.88;;;20.30;61.00;;;;;;5038379;28;20028;-68
2022/03/10 04:19:43;;;;;;;19.08;3.90;;;20.30;62.30;;;;;;5073192;28;20081;-67
2022/03/10 04:22:10;;;;;;;11.13;2.65;;;20.30;62.80;;;;;;5083737;28;20028;-69
2022/03/10 04:24:38;;;;;;;9.10;2.05;;;20.30;60.70;;;;;;5088189;28;20063;-68
2022/03/10 04:27:05;;;;;;;11.45;2.13;;;20.30;61.50;;;;;;5057580;28;20388;-68
2022/03/10 04:29:32;;;;;;;12.38;2.75;;;20.30;60.30;;;;;;5082329;28;20045;-67
2022/03/10 04:32:00;;;;;;;27.70;3.65;;;20.30;61.60;;;;;;5082452;28;20469;-68
2022/03/10 04:34:27;;;;;;;19.27;3.80;;;20.40;63.40;;;;;;5047472;28;20440;-68
2022/03/10 04:36:54;;;;;;;12.25;2.38;;;20.40;62.60;;;;;;5084322;28;20028;-68
2022/03/10 04:39:21;;;;;;;16.35;2.45;;;20.40;60.80;;;;;;5055137;28;20033;-68
2022/03/10 04:41:48;;;;;;;12.48;2.10;;;20.40;59.80;;;;;;5058923;28;20029;-68
2022/03/10 04:44:16;;;;;;;10.00;2.17;;;20.40;58.00;;;;;;5039853;28;20390;-68
2022/03/10 04:46:43;;;;;;;14.35;2.70;;;20.40;57.30;;;;;;5079746;28;20096;-69
2022/03/10 04:49:11;;;;;;;15.55;3.47;;;20.50;57.10;;;;;;5075049;28;20044;-69
2022/03/10 05:08:50;;;;;;;11.93;2.35;;;20.30;57.10;;;;;;5058900;28;20603;-69
2022/03/10 05:11:17;;;;;;;26.05;2.40;;;20.30;58.10;;;;;;5067167;28;20422;-69
2022/03/10 05:13:44;;;;;;;14.27;2.63;;;20.30;58.90;;;;;;5069838;28;20106;-69
2022/03/10 05:16:11;;;;;;;8.00;2.15;;;20.30;58.70;;;;;;5069926;28;20498;-69
2022/03/10 05:18:38;;;;;;;12.60;2.00;;;20.30;58.90;;;;;;5053277;28;20724;-68
2022/03/10 05:21:06;;;;;;;12.52;2.42;;;20.40;59.30;;;;;;5071251;28;20047;-68
2022/03/10 05:23:33;;;;;;;31.67;2.80;;;20.40;57.90;;;;;;5070919;28;20033;-68
2022/03/10 05:26:00;;;;;;;12.73;1.83;;;20.50;58.70;;;;;;5070527;28;20032;-69
2022/03/10 05:28:27;;;;;;;13.23;2.80;;;20.50;58.20;;;;;;5070123;28;20035;-69
2022/03/10 05:30:54;;;;;;;9.68;2.38;;;20.60;59.20;;;;;;5070697;28;20440;-69
2022/03/10 05:33:21;;;;;;;10.80;2.17;;;20.50;58.50;;;;;;5070267;28;20044;-69
2022/03/10 05:35:49;;;;;;;12.77;1.90;;;20.60;59.30;;;;;;5070795;28;20390;-69
2022/03/10 05:38:16;;;;;;;9.38;1.95;;;20.50;60.00;;;;;;5052205;28;20032;-69
2022/03/10 05:40:43;;;;;;;17.35;2.40;;;20.50;59.80;;;;;;5070169;28;20029;-69
2022/03/10 05:43:11;;;;;;;18.52;2.35;;;20.50;58.70;;;;;;5071247;28;20117;-68
2022/03/10 05:45:38;;;;;;;11.35;1.90;;;20.50;58.60;;;;;;5071126;28;20037;-68
2022/03/10 05:48:05;;;;;;;14.82;2.45;;;20.50;58.30;;;;;;5052587;28;20064;-68
2022/03/10 05:50:32;;;;;;;11.88;2.10;;;20.50;59.90;;;;;;5070916;28;20154;-70
2022/03/10 05:53:00;;;;;;;14.45;3.08;;;20.50;58.90;;;;;;5036368;28;20031;-68
2022/03/10 05:55:27;;;;;;;60.42;4.63;;;20.60;60.30;;;;;;5069010;28;20046;-68
2022/03/10 05:57:54;;;;;;;18.13;2.35;;;20.60;59.10;;;;;;5061984;28;20352;-72
2022/03/10 06:00:22;;;;;;;13.93;1.98;;;20.70;58.90;;;;;;5052918;28;20067;-69
2022/03/10 06:02:49;;;;;;;23.17;2.42;;;20.70;58.40;;;;;;5050553;28;20055;-69
2022/03/10 06:05:17;;;;;;;10.98;1.95;;;20.60;58.00;;;;;;5069904;28;20427;-69
2022/03/10 06:39:10;;;;;;;7.90;1.67;;;20.30;61.20;;;;;;5064028;28;20532;-69
2022/03/10 06:41:37;;;;;;;4.35;1.73;;;20.20;60.00;;;;;;5051987;28;20040;-71
2022/03/10 06:44:04;;;;;;;8.05;1.80;;;20.20;59.50;;;;;;5070080;28;20547;-71
2022/03/10 06:46:32;;;;;;;5.28;1.90;;;20.20;59.30;;;;;;5034561;28;20111;-69
2022/03/10 06:48:59;;;;;;;6.95;1.58;;;20.30;60.40;;;;;;5042444;28;20094;-69
2022/03/10 06:51:26;;;;;;;6.57;2.05;;;20.30;60.00;;;;;;5033835;28;20496;-69
2022/03/10 06:53:54;;;;;;;18.88;4.68;;;20.20;62.10;;;;;;5051978;28;20032;-71
2022/03/10 06:56:21;;;;;;;6.38;1.50;;;20.20;60.20;;;;;;5069955;28;20029;-70
2022/03/10 06:58:48;;;;;;;7.57;1.45;;;20.30;61.90;;;;;;5067848;28;20052;-69
2022/03/10 07:01:15;;;;;;;10.45;2.60;;;20.20;60.90;;;;;;5033942;28;20123;-69
2022/03/10 07:03:42;;;;;;;8.65;1.80;;;20.20;62.40;;;;;;5052269;28;20524;-68
2022/03/10 07:06:10;;;;;;;11.48;2.55;;;20.30;62.80;;;;;;5019360;28;20075;-68
2022/03/10 07:08:37;;;;;;;6.55;1.98;;;20.30;64.20;;;;;;5070008;28;20025;-68
2022/03/10 07:11:04;;;;;;;9.27;1.95;;;20.30;62.10;;;;;;5050243;28;20494;-69
2022/03/10 07:13:34;;;;;;;6.57;1.75;;;20.30;61.80;;;;;;5042962;28;20162;-70
2022/03/10 07:16:01;;;;;;;8.35;1.95;;;20.20;62.80;;;;;;5069676;28;20040;-70
2022/03/10 07:18:28;;;;;;;4.85;1.40;;;20.20;62.20;;;;;;5062064;28;20025;-69
2022/03/10 07:20:56;;;;;;;6.53;1.80;;;20.20;60.90;;;;;;5050015;28;20045;-68
2022/03/10 07:23:23;;;;;;;6.47;1.60;;;20.20;61.40;;;;;;5015774;28;20399;-68
2022/03/10 07:25:50;;;;;;;16.85;2.72;;;20.20;60.50;;;;;;5045127;28;20036;-68
2022/03/10 07:28:17;;;;;;;9.07;1.90;;;20.20;60.80;;;;;;5059624;28;20032;-68
2022/03/10 07:30:45;;;;;;;8.98;1.83;;;20.20;61.10;;;;;;5087606;28;20053;-68
2022/03/10 07:33:12;;;;;;;6.07;1.88;;;20.20;62.10;;;;;;5059067;28;20403;-68
2022/03/10 07:35:40;;;;;;;9.88;1.63;;;20.20;63.40;;;;;;5067315;28;20075;-68
2022/03/10 10:41:20;;;;;;;11.05;1.98;;;19.70;70.40;;;;;;5044252;28;20068;-71
2022/03/10 10:43:50;;;;;;;10.63;1.65;;;19.80;69.40;;;;;;5036290;28;20128;-68
2022/03/10 10:46:24;;;;;;;;;;;19.80;69.80;;;;;;5053833;28;20056;-68
2022/03/10 10:48:51;;;;;;;7.45;1.58;;;19.80;69.30;;;;;;5052026;28;20030;-69
2022/03/10 10:51:32;;;;;;;8.45;1.80;;;19.80;69.20;;;;;;5040580;28;20041;-68
2022/03/10 10:54:01;;;;;;;10.20;1.90;;;19.80;70.00;;;;;;5049154;28;20031;-70
2022/03/10 10:56:33;;;;;;;16.38;2.10;;;19.80;69.90;;;;;;5029583;28;20141;-68
2022/03/10 10:59:02;;;;;;;7.35;1.90;;;19.80;70.50;;;;;;5017172;28;20052;-68
2022/03/10 11:01:36;;;;;;;13.07;1.90;;;19.80;70.30;;;;;;5035462;28;20437;-68
2022/03/10 11:04:05;;;;;;;9.05;2.08;;;19.80;70.40;;;;;;5017448;28;20455;-69
2022/03/10 11:06:34;;;;;;;6.63;1.83;;;19.80;70.20;;;;;;5010612;28;20060;-68
2022/03/10 11:09:02;;;;;;;12.65;2.35;;;19.90;70.10;;;;;;5013598;28;20028;-70
2022/03/10 11:11:30;;;;;;;7.68;2.10;;;19.90;70.30;;;;;;5062439;28;20036;-71
2022/03/10 11:13:57;;;;;;;9.30;1.77;;;19.80;71.10;;;;;;5036343;28;20033;-69
2022/03/10 11:16:24;;;;;;;12.45;2.47;;;19.80;70.40;;;;;;5050764;28;20061;-69
2022/03/10 11:18:53;;;;;;;10.48;2.35;;;19.80;71.10;;;;;;5044768;28;20116;-70
2022/03/10 11:21:42;;;;;;;4.93;1.65;;;19.80;70.40;;;;;;5039785;28;20039;-70
2022/03/10 11:24:18;;;;;;;12.55;2.17;;;19.90;70.10;;;;;;5035524;28;20092;-68
2022/03/10 11:26:53;;;;;;;12.85;2.10;;;19.80;70.50;;;;;;5051160;28;20068;-70
2022/03/10 11:29:26;;;;;;;6.65;1.92;;;19.80;70.00;;;;;;5031427;28;20502;-67
2022/03/10 11:31:55;;;;;;;7.85;2.42;;;19.80;71.40;;;;;;5024434;28;20036;-69
2022/03/10 11:34:48;;;;;;;10.48;1.70;;;19.80;70.80;;;;;;5034738;28;20036;-69
2022/03/10 11:37:35;;;;;;;9.95;2.28;;;19.80;71.20;;;;;;5033871;28;20040;-69
2022/03/10 11:53:58;;;;;;;16.17;2.33;;;19.80;71.00;;;;;;5066414;28;20051;-69
2022/03/10 11:56:57;;;;;;;10.55;2.20;;;19.80;71.70;;;;;;5051761;28;20387;-69
2022/03/10 11:59:26;;;;;;;16.20;2.65;;;19.80;70.60;;;;;;5058528;28;20060;-67
2022/03/10 12:01:54;;;;;;;12.07;2.35;;;19.80;70.90;;;;;;5038157;28;20562;-70
2022/03/10 12:04:21;;;;;;;11.93;2.83;;;19.80;71.10;;;;;;5054063;28;20033;-67
2022/03/10 12:06:57;;;;;;;8.27;2.17;;;19.80;70.90;;;;;;5054698;28;20116;-68
2022/03/10 12:09:34;;;;;;;12.05;2.13;;;19.80;71.50;;;;;;5054035;28;20047;-67
2022/03/10 12:12:15;;;;;;;12.15;2.38;;;19.80;70.00;;;;;;5055349;28;20037;-67
2022/03/10 12:14:43;;;;;;;8.23;2.03;;;19.80;71.00;;;;;;5054836;28;20537;-68
2022/03/10 12:17:44;;;;;;;10.00;2.13;;;19.70;70.70;;;;;;5071968;28;20041;-67
2022/03/10 12:20:12;;;;;;;10.82;2.30;;;19.70;70.70;;;;;;5071830;28;20047;-68
2022/03/10 12:22:39;;;;;;;7.97;1.77;;;19.70;71.00;;;;;;5071011;28;20052;-68
2022/03/10 12:25:22;;;;;;;7.05;1.92;;;19.70;70.00;;;;;;5054834;28;20032;-68
2022/03/10 12:27:55;;;;;;;13.52;2.30;;;19.70;70.90;;;;;;5072485;28;20036;-68
2022/03/10 12:30:27;;;;;;;13.45;2.00;;;19.70;70.10;;;;;;5071481;28;20494;-68
2022/03/10 12:32:55;;;;;;;7.22;1.48;;;19.80;71.40;;;;;;5054504;28;20397;-68
2022/03/10 12:35:27;;;;;;;9.85;1.73;;;19.70;71.70;;;;;;5038481;28;20051;-69
2022/03/10 12:37:55;;;;;;;7.43;1.90;;;19.70;72.10;;;;;;5072938;28;20040;-69
2022/03/10 12:40:25;;;;;;;11.57;1.92;;;19.70;73.60;;;;;;5083116;28;20097;-69
2022/03/10 12:42:52;;;;;;;9.68;2.00;;;19.60;73.50;;;;;;5076522;28;20493;-69
2022/03/10 12:45:20;;;;;;;8.90;2.20;;;19.60;73.70;;;;;;5076607;28;20052;-69
2022/03/10 12:47:50;;;;;;;9.23;2.25;;;19.50;73.80;;;;;;5056658;28;20115;-68
2022/03/10 12:50:16;;;;;;;;;;;19.60;74.50;;;;;;5085972;28;20036;-69
2022/03/10 12:52:44;;;;;;;6.05;1.67;;;19.50;74.50;;;;;;5076907;28;19919;-70
2022/03/10 12:55:11;;;;;;;8.60;2.20;;;19.50;75.00;;;;;;5055089;28;20056;-69
2022/03/10 12:57:38;;;;;;;19.33;3.15;;;19.50;75.20;;;;;;5056751;28;20498;-69
2022/03/10 13:00:19;;;;;;;4.93;1.65;;;19.50;75.30;;;;;;5053171;28;20478;-69
2022/03/10 13:02:46;;;;;;;7.25;1.90;;;19.50;75.40;;;;;;5055111;28;20025;-68
2022/03/10 13:05:20;;;;;;;10.25;2.13;;;19.40;75.30;;;;;;5072628;28;20525;-69
2022/03/10 13:07:47;;;;;;;6.88;1.90;;;19.40;75.20;;;;;;5034665;28;20816;-69
2022/03/10 13:10:16;;;;;;;9.63;2.30;;;19.40;75.10;;;;;;5060385;28;20490;-69
2022/03/10 13:12:45;;;;;;;9.32;2.72;;;19.40;75.10;;;;;;5063592;28;20094;-69
2022/03/10 13:15:24;;;;;;;10.50;2.30;;;19.40;75.40;;;;;;5055730;28;20119;-69
2022/03/10 13:17:51;;;;;;;11.57;2.25;;;19.40;75.30;;;;;;5052290;28;20060;-68
2022/03/10 13:20:22;;;;;;;9.52;2.35;;;19.30;75.70;;;;;;5058343;28;20036;-69
2022/03/10 13:22:53;;;;;;;8.30;2.20;;;19.30;76.20;;;;;;5043886;28;20043;-69
2022/03/10 13:25:22;;;;;;;13.02;2.95;;;19.30;76.30;;;;;;5071586;28;20541;-69
2022/03/10 13:27:50;;;;;;;14.20;2.47;;;19.30;76.10;;;;;;5053114;28;20479;-69
2022/03/10 13:30:27;;;;;;;7.32;2.05;;;19.30;76.10;;;;;;5053530;28;20379;-69
2022/03/10 13:32:59;;;;;;;8.48;1.85;;;19.30;76.00;;;;;;5058543;28;20037;-68
2022/03/10 13:35:37;;;;;;;11.35;2.42;;;19.30;76.60;;;;;;5033839;28;20067;-68
2022/03/10 13:38:07;;;;;;;9.55;2.47;;;19.30;77.20;;;;;;5037151;28;20028;-68
2022/03/10 13:40:35;;;;;;;10.77;2.50;;;19.20;78.50;;;;;;5037786;28;20565;-68
2022/03/10 13:43:04;;;;;;;7.40;2.50;;;19.20;78.40;;;;;;5070587;28;20024;-68
2022/03/10 13:45:43;;;;;;;15.02;3.17;;;19.20;77.50;;;;;;5053553;28;20051;-68
2022/03/10 13:48:21;;;;;;;9.43;2.40;;;19.10;77.80;;;;;;5050159;28;20509;-68
2022/03/10 13:50:49;;;;;;;10.50;2.75;;;19.10;77.50;;;;;;5051482;28;20048;-68
2022/03/10 13:53:16;;;;;;;11.63;2.75;;;19.10;77.40;;;;;;5034099;28;20051;-67
2022/03/10 13:55:54;;;;;;;11.95;2.35;;;19.10;77.50;;;;;;5052600;28;20324;-67
2022/03/10 13:58:21;;;;;;;8.70;2.33;;;19.00;77.60;;;;;;5037740;28;20479;-68
2022/03/10 14:00:49;;;;;;;11.32;2.58;;;19.00;78.00;;;;;;5069534;28;20039;-68
2022/03/10 14:03:17;;;;;;;7.82;2.55;;;19.00;77.80;;;;;;5053280;28;20032;-68
2022/03/10 14:05:52;;;;;;;7.55;2.50;;;19.00;77.30;;;;;;5071044;28;20115;-68
2022/03/10 14:08:21;;;;;;;10.48;2.30;;;18.90;77.90;;;;;;5036526;28;20570;-68
2022/03/10 14:10:59;;;;;;;9.35;2.58;;;18.90;77.60;;;;;;5068652;28;20052;-68
2022/03/10 14:13:33;;;;;;;11.73;2.60;;;18.80;77.80;;;;;;5048768;28;20490;-68
2022/03/10 14:16:04;;;;;;;9.95;2.58;;;18.80;77.50;;;;;;5070517;28;20051;-67
2022/03/10 14:18:32;;;;;;;7.68;2.28;;;18.80;78.10;;;;;;5068695;28;20029;-68
2022/03/10 14:21:11;;;;;;;14.02;2.83;;;18.80;78.00;;;;;;5070317;28;20059;-67
2022/03/10 14:23:38;;;;;;;13.20;3.17;;;18.80;78.30;;;;;;5070734;28;20033;-69
2022/03/10 14:26:17;;;;;;;13.05;2.55;;;18.80;78.20;;;;;;5035515;28;20409;-68
2022/03/10 14:28:45;;;;;;;12.13;2.50;;;18.80;78.00;;;;;;5049290;28;20394;-68
2022/03/10 14:31:13;;;;;;;14.38;2.80;;;18.80;78.00;;;;;;5052084;28;20036;-68
2022/03/10 14:33:41;;;;;;;14.43;2.88;;;18.80;78.10;;;;;;5052478;28;20032;-68
2022/03/10 14:36:10;;;;;;;14.20;2.65;;;18.80;78.00;;;;;;5051206;28;20040;-67
2022/03/10 14:38:38;;;;;;;7.20;2.17;;;18.80;78.10;;;;;;5069811;28;20032;-67
2022/03/10 14:41:06;;;;;;;12.35;2.40;;;18.80;78.10;;;;;;5070360;28;20119;-68
2022/03/10 14:43:34;;;;;;;8.93;2.10;;;18.70;77.90;;;;;;5051997;28;20517;-69
2022/03/10 14:46:05;;;;;;;8.75;2.17;;;18.70;77.90;;;;;;5035267;28;20502;-68
2022/03/10 14:48:32;;;;;;;9.85;2.30;;;18.70;78.00;;;;;;5050539;28;20063;-68
2022/03/10 14:50:59;;;;;;;13.00;2.40;;;18.70;77.10;;;;;;5068390;28;20537;-68
2022/03/10 14:53:26;;;;;;;7.50;1.70;;;18.60;77.20;;;;;;5069490;28;20044;-68
2022/03/10 14:55:53;;;;;;;13.38;1.98;;;18.70;77.20;;;;;;5070461;28;20032;-69
2022/03/10 14:58:21;;;;;;;7.88;2.10;;;18.60;76.40;;;;;;5069903;28;20066;-69
2022/03/10 15:00:48;;;;;;;7.15;1.98;;;18.60;77.10;;;;;;5069251;28;20040;-69
2022/03/10 15:03:15;;;;;;;9.23;1.83;;;18.60;77.00;;;;;;5069909;28;20110;-70
2022/03/10 15:05:42;;;;;;;8.48;1.83;;;18.60;77.20;;;;;;5047679;28;20124;-70
2022/03/10 15:08:09;;;;;;;7.97;1.90;;;18.60;77.50;;;;;;5068393;28;20103;-69
2022/03/10 15:10:36;;;;;;;6.50;2.15;;;18.50;77.50;;;;;;5039583;28;20072;-69
2022/03/10 15:13:04;;;;;;;8.48;1.80;;;18.50;77.90;;;;;;5074210;28;20024;-69
2022/03/10 15:15:32;;;;;;;8.77;2.17;;;18.40;77.60;;;;;;5056391;28;20036;-69
2022/03/10 15:18:00;;;;;;;9.30;2.28;;;18.40;77.70;;;;;;5050535;28;20039;-70
2022/03/10 15:20:28;;;;;;;13.02;2.25;;;18.40;78.00;;;;;;5036429;28;20056;-69
2022/03/10 15:22:55;;;;;;;14.60;2.22;;;18.40;78.20;;;;;;5056363;28;20119;-69
2022/03/10 15:25:32;;;;;;;11.00;2.65;;;18.30;78.60;;;;;;5039743;28;20587;-69
2022/03/10 15:28:04;;;;;;;9.05;1.77;;;18.30;79.10;;;;;;5055037;28;20041;-69
2022/03/10 15:30:31;;;;;;;8.25;1.52;;;18.30;79.60;;;;;;5055273;28;20117;-67
2022/03/10 15:32:58;;;;;;;6.18;1.88;;;18.20;79.50;;;;;;5039272;28;20537;-70
2022/03/10 15:35:26;;;;;;;7.75;2.10;;;18.20;79.20;;;;;;5053994;28;20055;-69
2022/03/10 15:37:54;;;;;;;11.70;1.92;;;18.20;78.70;;;;;;5031562;28;20032;-70
2022/03/10 15:40:22;;;;;;;10.50;1.80;;;18.20;78.20;;;;;;5072819;28;20037;-69
2022/03/10 15:42:49;;;;;;;8.85;2.20;;;18.20;78.40;;;;;;5055460;28;20457;-70
2022/03/10 15:45:17;;;;;;;8.80;1.80;;;18.20;77.80;;;;;;5073229;28;20035;-70
2022/03/10 15:47:45;;;;;;;10.77;2.15;;;18.20;76.90;;;;;;5073234;28;20094;-70
2022/03/10 15:50:15;;;;;;;6.70;1.77;;;18.30;77.80;;;;;;5053687;28;20044;-69
2022/03/10 15:52:52;;;;;;;7.80;2.13;;;18.30;76.70;;;;;;5047576;28;20086;-69
2022/03/10 15:55:22;;;;;;;11.30;2.05;;;18.30;77.30;;;;;;5056546;28;20041;-69
2022/03/10 15:57:51;;;;;;;8.20;1.90;;;18.30;78.20;;;;;;5070678;28;20387;-69
2022/03/10 16:00:19;;;;;;;9.55;2.20;;;18.20;77.70;;;;;;5054394;28;20418;-69
2022/03/10 16:02:47;;;;;;;12.30;2.20;;;18.20;77.90;;;;;;5093584;28;20470;-69
2022/03/10 16:05:14;;;;;;;13.95;2.70;;;18.30;78.20;;;;;;5076830;28;20042;-69
2022/03/10 16:07:45;;;;;;;12.25;2.25;;;18.20;78.20;;;;;;5045415;28;20044;-69
2022/03/10 16:10:19;;;;;;;12.90;2.35;;;18.20;78.00;;;;;;5038776;28;20036;-69
2022/03/10 16:12:49;;;;;;;14.63;2.13;;;18.20;78.30;;;;;;5073048;28;20065;-70
2022/03/10 16:15:16;;;;;;;;;;;18.20;78.90;;;;;;5073459;28;20482;-70
2022/03/10 16:17:44;;;;;;;9.80;2.35;;;18.30;78.60;;;;;;5072225;28;19908;-71
2022/03/10 16:20:11;;;;;;;12.65;2.38;;;18.30;78.90;;;;;;5070216;28;20029;-69
2022/03/10 16:22:42;;;;;;;17.63;2.72;;;18.30;78.60;;;;;;5070268;28;20174;-69
2022/03/10 16:25:12;;;;;;;10.50;2.30;;;18.30;78.90;;;;;;5054794;28;20029;-69
2022/03/10 16:27:41;;;;;;;9.85;2.45;;;18.30;77.90;;;;;;5055317;28;20033;-69
2022/03/10 16:30:09;;;;;;;8.27;1.90;;;18.30;78.00;;;;;;5072325;28;20051;-70
2022/03/10 16:32:39;;;;;;;10.95;1.95;;;18.30;77.90;;;;;;5072650;28;20041;-69
2022/03/10 16:35:07;;;;;;;7.87;2.20;;;18.20;78.20;;;;;;5053800;28;20511;-69
2022/03/10 16:37:34;;;;;;;16.13;2.72;;;18.20;78.00;;;;;;5068277;28;20051;-69
2022/03/10 16:40:01;;;;;;;6.00;2.00;;;18.20;77.70;;;;;;5072725;28;20047;-69
2022/03/10 16:42:31;;;;;;;11.25;2.08;;;18.20;77.80;;;;;;5066681;28;20060;-70
2022/03/10 16:44:59;;;;;;;8.25;2.08;;;18.20;77.80;;;;;;5071839;28;20036;-69
2022/03/10 16:47:27;;;;;;;11.50;1.85;;;18.10;78.10;;;;;;5053878;28;20017;-69
2022/03/10 16:49:55;;;;;;;7.43;2.22;;;18.10;78.10;;;;;;5053936;28;20039;-69
2022/03/10 16:52:22;;;;;;;11.15;2.30;;;18.00;78.20;;;;;;5062537;28;20060;-70
2022/03/10 16:54:49;;;;;;;10.32;2.10;;;18.00;78.50;;;;;;5069881;28;20529;-70
2022/03/10 16:57:16;;;;;;;6.70;1.80;;;18.00;78.00;;;;;;5053161;28;20392;-69
2022/03/10 16:59:45;;;;;;;10.15;2.35;;;18.00;77.80;;;;;;5054209;28;20051;-69
2022/03/10 17:02:12;;;;;;;7.13;1.75;;;18.00;77.70;;;;;;5071929;28;20032;-69
2022/03/10 17:04:39;;;;;;;5.40;1.40;;;18.00;76.90;;;;;;5036501;28;20478;-69
2022/03/10 17:07:07;;;;;;;11.77;1.88;;;18.00;77.50;;;;;;5067365;28;20036;-70
2022/03/10 17:09:35;;;;;;;9.07;2.45;;;17.90;77.30;;;;;;5031087;28;20503;-69
2022/03/10 17:12:02;;;;;;;4.93;1.70;;;17.90;77.40;;;;;;5054113;28;20043;-69
2022/03/10 17:14:30;;;;;;;7.78;1.52;;;17.80;77.40;;;;;;5035968;28;20024;-70
2022/03/10 17:16:58;;;;;;;7.95;1.67;;;17.80;77.40;;;;;;5052950;28;20128;-70
2022/03/10 17:19:25;;;;;;;7.60;2.13;;;17.80;77.70;;;;;;5021214;28;20131;-69
2022/03/10 17:21:53;;;;;;;8.43;1.70;;;17.80;77.40;;;;;;5034488;28;20032;-69
2022/03/10 17:24:21;;;;;;;9.50;1.58;;;17.80;78.10;;;;;;5070831;28;20043;-70
2022/03/10 17:26:48;;;;;;;12.07;2.03;;;17.70;77.80;;;;;;5070992;28;20123;-67
2022/03/10 17:29:15;;;;;;;7.45;1.88;;;17.80;78.30;;;;;;5070965;28;20033;-67
2022/03/10 17:31:43;;;;;;;12.23;1.90;;;17.70;78.90;;;;;;5070455;28;20094;-67
2022/03/10 17:34:10;;;;;;;5.78;1.60;;;17.70;77.60;;;;;;5070019;28;20075;-68
2022/03/10 17:36:38;;;;;;;8.20;1.90;;;17.70;77.60;;;;;;5052895;28;20032;-67
2022/03/10 17:39:06;;;;;;;8.07;1.80;;;17.70;77.20;;;;;;5071140;28;20055;-66
2022/03/10 17:41:34;;;;;;;8.18;1.98;;;17.70;78.20;;;;;;5036277;28;20066;-67
2022/03/10 17:44:01;;;;;;;9.18;2.25;;;17.70;78.00;;;;;;5053019;28;20036;-67
2022/03/10 17:46:30;;;;;;;17.73;7.53;;;17.70;77.70;;;;;;5048320;28;20028;-68
2022/03/10 17:48:58;;;;;;;11.55;2.15;;;17.70;78.10;;;;;;5061840;28;20043;-68
2022/03/10 17:51:25;;;;;;;5.72;1.80;;;17.70;77.20;;;;;;5067986;28;20112;-67
2022/03/10 17:53:52;;;;;;;7.75;1.92;;;17.70;77.10;;;;;;5066948;28;20403;-68
2022/03/10 17:56:19;;;;;;;4.28;1.40;;;17.70;77.10;;;;;;5068732;28;20444;-68
2022/03/10 17:58:47;;;;;;;5.32;1.45;;;17.70;77.10;;;;;;5052328;28;20154;-68
2022/03/10 18:01:14;;;;;;;7.47;1.85;;;17.70;76.90;;;;;;5069413;28;20127;-68
2022/03/10 18:03:41;;;;;;;7.90;1.80;;;17.70;76.60;;;;;;5052531;28;20032;-68
2022/03/10 18:06:08;;;;;;;9.23;1.65;;;17.70;76.20;;;;;;5066908;28;20054;-68
2022/03/10 18:08:35;;;;;;;4.47;1.63;;;17.70;77.10;;;;;;5060048;28;20035;-68
2022/03/10 18:11:02;;;;;;;6.57;1.48;;;17.70;77.20;;;;;;5069789;28;20561;-68
2022/03/10 18:13:30;;;;;;;9.95;1.80;;;17.70;77.20;;;;;;5072387;28;20104;-68
2022/03/10 18:15:57;;;;;;;10.63;2.20;;;17.70;77.60;;;;;;5053090;28;20033;-68
2022/03/10 18:18:24;;;;;;;7.20;1.70;;;17.70;77.40;;;;;;5070261;28;20032;-68
2022/03/10 18:20:51;;;;;;;7.57;1.92;;;17.60;77.60;;;;;;5055783;28;20047;-68
2022/03/10 18:23:18;;;;;;;11.52;1.88;;;17.60;77.80;;;;;;5068737;28;20059;-68
2022/03/10 18:25:46;;;;;;;10.02;1.95;;;17.60;77.40;;;;;;5052650;28;20410;-67
2022/03/10 18:28:13;;;;;;;8.00;1.65;;;17.50;77.80;;;;;;5052533;28;20037;-67
2022/03/10 18:30:40;;;;;;;7.15;1.58;;;17.50;78.10;;;;;;5069250;28;20068;-68
2022/03/10 18:33:07;;;;;;;6.35;1.50;;;17.50;78.20;;;;;;5069858;28;20037;-68
2022/03/10 18:35:34;;;;;;;3.88;1.33;;;17.40;79.10;;;;;;5069529;28;20422;-68
2022/03/10 18:38:02;;;;;;;5.45;1.38;;;17.40;78.70;;;;;;5049819;28;20036;-68